Terminal Aerodrome Forecast
Issued by NWS

Home | Current Version | Previous Version | Text Only | Print | Product List | Glossary On
Versions: 1 2 3 4 5 6 7 8 9 10 11 12 13 14 15 16 17 18 19 20 21 22 23 24 25 26 27 28 29 30 31 32 33 34
000
FTUS43 KDMX 251859 AAA
TAFFOD
TAF AMD
KFOD 251859Z 2519/2618 19011G14KT P6SM SCT020 SCT035
     FM260400 18005KT P6SM BKN040 BKN110
     FM260500 VRB03KT P6SM BKN040
      TEMPO 2605/2607 4SM -TSRA OVC040CB
     FM261500 19009KT P6SM SCT150=

USA.gov is the U.S. government's official web portal to all federal, state and local government web resources and services.